Time;durP1;ratioP1;P1;durP2;ratioP2;P2;SDS_P1;SDS_P2;PMS_P1;PMS_P2;Temp;Humidity;BMP_temperature;BMP_pressure;BME280_temperature;BME280_humidity;BME280_pressure;Samples;Min_cycle;Max_cycle;Signal;HPM_P1;HPM_P2
2022/04/27 00:00:48;;;;;;;19.60;14.00;;;8.60;99.90;;;;;;5108620;28;20806;-68
2022/04/27 00:03:15;;;;;;;19.20;15.73;;;8.60;99.90;;;;;;5108397;28;20453;-67
2022/04/27 00:05:42;;;;;;;20.80;15.47;;;8.50;99.90;;;;;;5108599;28;20464;-69
2022/04/27 00:08:09;;;;;;;20.73;15.97;;;8.40;99.90;;;;;;5108989;28;20453;-68
2022/04/27 00:10:35;;;;;;;20.60;15.77;;;8.40;99.90;;;;;;5108496;28;20449;-67
2022/04/27 00:13:02;;;;;;;19.93;15.37;;;8.50;99.90;;;;;;5109392;28;20499;-67
2022/04/27 00:15:31;;;;;;;19.93;14.43;;;8.40;99.90;;;;;;5108118;28;20473;-68
2022/04/27 00:17:57;;;;;;;20.33;16.33;;;8.40;99.90;;;;;;5108072;28;20449;-67
2022/04/27 00:20:24;;;;;;;18.43;15.57;;;8.30;99.90;;;;;;5108672;28;20525;-67
2022/04/27 00:22:51;;;;;;;20.33;15.37;;;8.20;99.90;;;;;;5108373;28;20973;-67
2022/04/27 00:25:18;;;;;;;22.17;16.70;;;8.20;99.90;;;;;;5110036;28;20465;-68
2022/04/27 00:27:46;;;;;;;20.77;15.80;;;8.10;99.90;;;;;;5112309;28;20524;-67
2022/04/27 00:30:12;;;;;;;22.67;17.53;;;8.00;99.90;;;;;;5112445;28;20524;-68
2022/04/27 00:32:41;;;;;;;20.37;16.20;;;8.10;99.90;;;;;;5112727;28;20532;-67
2022/04/27 00:35:09;;;;;;;23.97;17.80;;;8.00;99.90;;;;;;5112702;28;20556;-68
2022/04/27 00:37:36;;;;;;;26.40;18.17;;;8.10;99.90;;;;;;5112246;28;20441;-68
2022/04/27 00:40:03;;;;;;;29.83;19.37;;;8.20;99.90;;;;;;5112516;28;20445;-67
2022/04/27 00:42:30;;;;;;;23.30;17.20;;;8.20;99.90;;;;;;5112318;28;20445;-67
2022/04/27 00:44:56;;;;;;;27.87;19.13;;;8.30;99.90;;;;;;5112175;28;20468;-68
2022/04/27 00:47:23;;;;;;;24.90;19.80;;;8.30;99.90;;;;;;5112471;28;20453;-67
2022/04/27 00:49:53;;;;;;;25.87;19.93;;;8.30;99.90;;;;;;5112440;28;20453;-68
2022/04/27 00:52:22;;;;;;;28.10;19.70;;;8.40;99.90;;;;;;5111637;28;20448;-67
2022/04/27 00:54:51;;;;;;;24.20;18.37;;;8.40;99.90;;;;;;5111722;28;20476;-68
2022/04/27 00:57:19;;;;;;;29.03;21.33;;;8.50;99.90;;;;;;5112299;28;20476;-67
2022/04/27 00:59:46;;;;;;;25.43;20.47;;;8.50;99.90;;;;;;5111654;28;20448;-68
2022/04/27 01:02:13;;;;;;;26.87;19.93;;;8.40;99.90;;;;;;5112132;28;20445;-67
2022/04/27 01:04:40;;;;;;;29.03;18.73;;;8.50;99.90;;;;;;5111673;28;20467;-67
2022/04/27 01:07:11;;;;;;;25.97;19.73;;;8.50;99.90;;;;;;5111558;28;20512;-67
2022/04/27 01:09:38;;;;;;;23.97;18.60;;;8.50;99.90;;;;;;5107193;28;20888;-68
2022/04/27 01:12:06;;;;;;;25.80;19.93;;;8.60;99.90;;;;;;5111964;28;20441;-68
2022/04/27 01:14:42;;;;;;;28.17;21.53;;;8.60;99.90;;;;;;5111073;28;20564;-68
2022/04/27 01:17:09;;;;;;;30.80;21.13;;;8.60;99.90;;;;;;5111653;28;20441;-67
2022/04/27 01:19:36;;;;;;;27.30;19.53;;;8.70;99.90;;;;;;5111306;28;20448;-68
2022/04/27 01:22:05;;;;;;;24.20;18.50;;;8.80;99.90;;;;;;5111298;28;20456;-68
2022/04/27 01:24:32;;;;;;;25.90;19.47;;;8.80;99.90;;;;;;5111808;28;20991;-67
2022/04/27 01:26:58;;;;;;;25.03;19.90;;;8.80;99.90;;;;;;5111619;28;20446;-68
2022/04/27 01:29:25;;;;;;;25.90;19.03;;;8.90;99.90;;;;;;5111933;28;20795;-68
2022/04/27 01:31:53;;;;;;;25.97;19.70;;;8.90;99.90;;;;;;5111796;28;20445;-68
2022/04/27 01:34:21;;;;;;;24.33;18.60;;;8.90;99.90;;;;;;5110352;28;20465;-68
2022/04/27 01:36:48;;;;;;;28.43;20.03;;;9.00;99.90;;;;;;5110819;27;20460;-67
2022/04/27 01:39:16;;;;;;;31.40;19.47;;;9.00;99.90;;;;;;5110889;28;20448;-68
2022/04/27 01:41:43;;;;;;;29.60;21.80;;;9.00;99.90;;;;;;5111287;28;20478;-68
2022/04/27 01:44:10;;;;;;;30.63;22.33;;;9.00;99.90;;;;;;5111209;28;20575;-68
2022/04/27 01:46:37;;;;;;;28.13;21.30;;;9.00;99.90;;;;;;5110766;28;20846;-67
2022/04/27 01:49:03;;;;;;;30.10;21.37;;;9.00;99.90;;;;;;5110812;28;20441;-68
2022/04/27 01:54:17;;;;;;;34.60;23.50;;;9.00;99.90;;;;;;5107489;28;20452;-69
2022/04/27 01:56:46;;;;;;;29.83;22.83;;;9.00;99.90;;;;;;5110749;28;20449;-68
2022/04/27 01:59:13;;;;;;;31.07;22.40;;;9.00;99.90;;;;;;5110820;28;20441;-68
2022/04/27 02:01:40;;;;;;;28.73;21.20;;;9.00;99.90;;;;;;5110991;28;20553;-67
2022/04/27 02:04:07;;;;;;;28.77;21.60;;;9.10;99.90;;;;;;5109795;28;21082;-67
2022/04/27 02:06:35;;;;;;;31.90;22.03;;;9.10;99.90;;;;;;5111136;28;20429;-67
2022/04/27 02:09:04;;;;;;;35.33;25.50;;;9.10;99.90;;;;;;5110475;28;20441;-68
2022/04/27 02:11:31;;;;;;;32.63;23.53;;;9.10;99.90;;;;;;5107270;28;20499;-68
2022/04/27 02:13:59;;;;;;;32.53;24.80;;;9.10;99.90;;;;;;5110317;28;20958;-68
2022/04/27 02:16:27;;;;;;;30.73;23.27;;;9.10;99.90;;;;;;5110221;28;20504;-68
2022/04/27 02:18:55;;;;;;;31.47;23.73;;;9.20;99.90;;;;;;5109643;28;20450;-68
2022/04/27 02:21:22;;;;;;;29.20;21.47;;;9.10;99.90;;;;;;5110178;28;20544;-68
2022/04/27 02:23:50;;;;;;;31.63;22.53;;;9.10;99.90;;;;;;5110267;28;20441;-68
2022/04/27 02:26:17;;;;;;;29.50;22.03;;;9.00;99.90;;;;;;5110684;28;20458;-66
2022/04/27 02:28:44;;;;;;;30.80;21.30;;;9.00;99.90;;;;;;5109750;28;20984;-68
2022/04/27 02:31:12;;;;;;;28.00;21.23;;;9.00;99.90;;;;;;5110344;28;20452;-68
2022/04/27 02:33:39;;;;;;;27.40;21.57;;;9.00;99.90;;;;;;5109474;28;20447;-68
2022/04/27 02:36:06;;;;;;;29.90;21.40;;;9.00;99.90;;;;;;5109873;28;21035;-67
2022/04/27 02:38:33;;;;;;;31.13;23.30;;;9.00;99.90;;;;;;5110494;28;20966;-67
2022/04/27 02:41:00;;;;;;;29.33;22.30;;;9.00;99.90;;;;;;5109955;28;20444;-67
2022/04/27 02:43:27;;;;;;;31.30;22.63;;;9.00;99.90;;;;;;5109874;28;20438;-68
2022/04/27 02:45:54;;;;;;;32.20;22.83;;;9.10;99.90;;;;;;5110227;28;20465;-69
2022/04/27 02:48:22;;;;;;;28.90;21.80;;;9.20;99.90;;;;;;5109227;28;20449;-67
2022/04/27 02:53:36;;;;;;;25.00;20.10;;;9.20;99.90;;;;;;5109623;28;20949;-68
2022/04/27 02:56:04;;;;;;;24.03;19.83;;;9.20;99.90;;;;;;5108850;28;20516;-68
2022/04/27 02:58:31;;;;;;;25.37;19.87;;;9.10;99.90;;;;;;5110002;28;20449;-68
2022/04/27 03:00:57;;;;;;;23.60;19.07;;;9.10;99.90;;;;;;5109225;28;20453;-68
2022/04/27 03:03:26;;;;;;;26.00;19.90;;;9.00;99.90;;;;;;5109222;28;20452;-68
2022/04/27 03:05:52;;;;;;;26.17;19.53;;;9.00;99.90;;;;;;5109111;28;20457;-68
2022/04/27 03:08:19;;;;;;;29.10;21.20;;;9.00;99.90;;;;;;5108646;28;20449;-68
2022/04/27 03:10:47;;;;;;;26.87;20.37;;;9.00;99.90;;;;;;5109586;28;20532;-68
2022/04/27 03:13:14;;;;;;;26.53;20.67;;;8.90;99.90;;;;;;5108696;28;20450;-68
2022/04/27 03:15:41;;;;;;;26.20;21.10;;;9.00;99.90;;;;;;5108630;28;21114;-67
2022/04/27 03:18:20;;;;;;;23.60;19.17;;;9.00;99.90;;;;;;5095871;28;20445;-68
2022/04/27 03:20:49;;;;;;;27.63;21.40;;;9.00;99.90;;;;;;5108470;28;20468;-67
2022/04/27 03:23:17;;;;;;;24.57;18.97;;;9.00;99.90;;;;;;5108510;28;20827;-68
2022/04/27 03:25:44;;;;;;;24.57;20.43;;;9.00;99.90;;;;;;5105327;28;20500;-68
2022/04/27 03:28:12;;;;;;;28.87;20.00;;;9.00;99.90;;;;;;5109235;28;20532;-68
2022/04/27 03:30:39;;;;;;;25.53;19.30;;;9.00;99.90;;;;;;5109231;28;20445;-68
2022/04/27 03:33:06;;;;;;;25.07;19.63;;;9.00;99.90;;;;;;5108728;28;20445;-68
2022/04/27 03:35:33;;;;;;;25.67;20.27;;;9.00;99.90;;;;;;5108642;28;20468;-69
2022/04/27 03:38:03;;;;;;;28.10;21.30;;;8.90;99.90;;;;;;5109223;28;20460;-68
2022/04/27 03:40:30;;;;;;;28.57;20.90;;;8.90;99.90;;;;;;5109391;28;20641;-68
2022/04/27 03:42:57;;;;;;;23.73;18.50;;;8.90;99.90;;;;;;5109160;28;20480;-67
2022/04/27 03:45:24;;;;;;;26.60;20.30;;;8.90;99.90;;;;;;5109314;28;20461;-68
2022/04/27 03:47:51;;;;;;;23.87;18.63;;;8.90;99.90;;;;;;5109641;28;20458;-67
2022/04/27 03:50:18;;;;;;;25.80;19.57;;;8.90;99.90;;;;;;5109083;28;20449;-69
2022/04/27 03:52:45;;;;;;;27.97;20.77;;;8.90;99.90;;;;;;5109130;28;20438;-68
2022/04/27 03:55:14;;;;;;;25.03;19.50;;;9.00;99.90;;;;;;5108531;28;20477;-68
2022/04/27 03:57:41;;;;;;;26.27;20.37;;;9.00;99.90;;;;;;5108646;28;20552;-68
2022/04/27 04:00:10;;;;;;;24.63;18.90;;;9.00;99.90;;;;;;5111968;28;20528;-68
2022/04/27 04:02:37;;;;;;;28.93;21.63;;;9.00;99.90;;;;;;5112603;28;20445;-68
2022/04/27 04:05:05;;;;;;;24.43;19.93;;;9.10;99.90;;;;;;5112086;28;20473;-68
2022/04/27 04:07:32;;;;;;;25.77;19.30;;;9.00;99.90;;;;;;5111543;28;20440;-68
2022/04/27 04:09:59;;;;;;;21.93;18.00;;;9.10;99.90;;;;;;5113167;28;20441;-68
2022/04/27 04:12:28;;;;;;;24.20;18.93;;;9.10;99.90;;;;;;5113483;28;20499;-67
2022/04/27 04:14:55;;;;;;;22.77;19.90;;;9.10;99.90;;;;;;5110651;28;20469;-68
2022/04/27 04:17:21;;;;;;;22.60;17.40;;;9.20;99.90;;;;;;5112455;28;20448;-67
2022/04/27 04:19:48;;;;;;;24.10;19.73;;;9.10;99.90;;;;;;5113070;28;20448;-69
2022/04/27 04:22:15;;;;;;;22.60;18.40;;;9.20;99.90;;;;;;5112722;28;20911;-67
2022/04/27 04:28:29;;;;;;;22.90;18.77;;;9.20;99.90;;;;;;5112678;28;20536;-68
2022/04/27 04:30:16;;;;;;;24.20;18.83;;;9.30;99.90;;;;;;5112130;28;20448;-68
2022/04/27 04:32:43;;;;;;;20.90;17.60;;;9.30;99.90;;;;;;5112639;28;20442;-67
2022/04/27 04:35:10;;;;;;;21.87;17.80;;;9.40;99.90;;;;;;5112488;28;20469;-68
2022/04/27 04:37:37;;;;;;;24.57;18.10;;;9.30;99.90;;;;;;5113464;28;20540;-69
2022/04/27 04:40:04;;;;;;;23.23;18.57;;;9.30;99.90;;;;;;5112589;28;20448;-68
2022/04/27 04:42:34;;;;;;;23.40;18.97;;;9.30;99.90;;;;;;5112255;28;20448;-65
2022/04/27 04:45:01;;;;;;;21.80;17.57;;;9.30;99.90;;;;;;5111403;28;20472;-66
2022/04/27 04:47:27;;;;;;;23.93;18.43;;;9.30;99.90;;;;;;5111056;27;20453;-66
2022/04/27 04:49:54;;;;;;;24.37;18.10;;;9.30;99.90;;;;;;5116230;27;20532;-66
2022/04/27 04:52:21;;;;;;;23.50;18.93;;;9.30;99.90;;;;;;5113433;27;21930;-67
2022/04/27 04:54:48;;;;;;;28.33;20.77;;;9.40;99.90;;;;;;5108752;27;20473;-67
2022/04/27 04:57:14;;;;;;;26.30;19.57;;;9.50;99.90;;;;;;5112910;27;20487;-66
2022/04/27 04:59:43;;;;;;;27.53;19.80;;;9.60;99.90;;;;;;5108710;27;20534;-67
2022/04/27 05:02:09;;;;;;;25.33;19.37;;;9.70;99.90;;;;;;5103532;27;20455;-65
2022/04/27 05:04:36;;;;;;;25.53;20.10;;;9.80;99.90;;;;;;5100907;27;21184;-66
2022/04/27 05:07:04;;;;;;;25.57;18.80;;;9.90;99.90;;;;;;5106298;27;20447;-66
2022/04/27 05:09:31;;;;;;;26.70;20.43;;;10.00;99.90;;;;;;5097944;27;20450;-66
2022/04/27 05:11:57;;;;;;;24.60;19.30;;;9.80;99.90;;;;;;5111479;27;20456;-64
2022/04/27 05:14:24;;;;;;;23.93;18.67;;;9.80;99.90;;;;;;5103598;27;20472;-66
2022/04/27 05:16:52;;;;;;;22.47;18.43;;;9.80;99.90;;;;;;5118369;27;20477;-66
2022/04/27 05:19:21;;;;;;;26.30;20.60;;;9.80;99.90;;;;;;5110553;27;20457;-66
2022/04/27 05:21:48;;;;;;;24.70;19.80;;;9.80;99.90;;;;;;5112123;27;20522;-68
2022/04/27 05:24:15;;;;;;;26.90;21.63;;;9.80;99.90;;;;;;5108573;27;20466;-67
2022/04/27 05:26:42;;;;;;;23.43;18.60;;;9.70;99.90;;;;;;5115593;27;20450;-66
2022/04/27 05:31:55;;;;;;;24.60;18.90;;;9.70;99.90;;;;;;5085126;27;20441;-65
2022/04/27 05:34:24;;;;;;;22.43;17.97;;;9.70;99.90;;;;;;5105582;28;20889;-65
2022/04/27 05:36:51;;;;;;;25.10;19.50;;;9.70;99.90;;;;;;5109013;28;21190;-66
2022/04/27 05:39:21;;;;;;;28.80;21.93;;;9.70;99.90;;;;;;5110831;28;20441;-65
2022/04/27 05:41:49;;;;;;;29.77;20.77;;;9.70;99.90;;;;;;5111034;28;20455;-66
2022/04/27 05:44:17;;;;;;;24.67;20.00;;;9.70;99.90;;;;;;5109723;28;20466;-66
2022/04/27 05:46:44;;;;;;;27.80;21.60;;;9.70;99.90;;;;;;5111183;28;20513;-67
2022/04/27 05:49:11;;;;;;;26.77;20.10;;;9.60;99.90;;;;;;5111061;28;20442;-66
2022/04/27 05:51:39;;;;;;;27.27;20.40;;;9.60;99.90;;;;;;5110653;28;20446;-66
2022/04/27 05:54:06;;;;;;;27.00;20.03;;;9.60;99.90;;;;;;5111038;28;20465;-66
2022/04/27 05:56:33;;;;;;;24.33;19.70;;;9.60;99.90;;;;;;5111040;28;20552;-66
2022/04/27 05:59:01;;;;;;;25.80;21.27;;;9.60;99.90;;;;;;5111764;28;20826;-66
2022/04/27 06:01:28;;;;;;;25.17;19.03;;;9.60;99.90;;;;;;5110515;28;20449;-66
2022/04/27 06:03:55;;;;;;;26.03;20.63;;;9.60;99.90;;;;;;5111382;28;21139;-66
2022/04/27 06:06:23;;;;;;;24.33;19.30;;;9.70;99.90;;;;;;5110764;28;20829;-66
2022/04/27 06:08:52;;;;;;;27.80;20.43;;;9.70;99.90;;;;;;5111795;28;20449;-67
2022/04/27 06:11:19;;;;;;;25.87;20.47;;;9.70;99.90;;;;;;5111294;28;20544;-66
2022/04/27 06:13:46;;;;;;;22.73;19.00;;;9.70;99.90;;;;;;5111195;28;20453;-66
2022/04/27 06:16:13;;;;;;;26.37;19.60;;;9.80;99.90;;;;;;5110588;28;20477;-66
2022/04/27 06:18:40;;;;;;;24.63;18.20;;;9.80;99.90;;;;;;5110063;28;20452;-66
2022/04/27 06:21:07;;;;;;;19.40;16.10;;;9.90;99.90;;;;;;5108937;28;20460;-66
2022/04/27 06:23:34;;;;;;;19.50;14.33;;;9.90;99.90;;;;;;5110320;28;20444;-67
2022/04/27 06:26:02;;;;;;;17.00;13.67;;;9.90;99.90;;;;;;5109657;28;20556;-66
2022/04/27 06:28:29;;;;;;;43.77;20.80;;;9.90;99.90;;;;;;5110592;28;20448;-66
2022/04/27 06:30:56;;;;;;;34.17;16.47;;;10.00;99.90;;;;;;5110607;28;20449;-67
2022/04/27 06:33:23;;;;;;;16.23;13.40;;;10.10;99.90;;;;;;5109927;28;20449;-66
2022/04/27 06:35:50;;;;;;;15.97;13.70;;;10.10;99.90;;;;;;5109528;28;20552;-65
2022/04/27 06:38:17;;;;;;;16.93;13.60;;;10.00;99.90;;;;;;5110339;28;20445;-66
2022/04/27 06:40:44;;;;;;;17.00;13.20;;;10.00;99.90;;;;;;5101667;28;20441;-64
2022/04/27 06:43:12;;;;;;;17.20;14.47;;;10.00;99.90;;;;;;5106660;28;20547;-67
2022/04/27 06:45:39;;;;;;;16.70;13.10;;;10.00;99.90;;;;;;5109580;28;20465;-67
2022/04/27 06:48:07;;;;;;;16.73;14.00;;;10.10;99.90;;;;;;5110180;28;20437;-66
2022/04/27 06:50:34;;;;;;;16.80;13.43;;;10.20;99.90;;;;;;5110044;28;20852;-67
2022/04/27 06:53:01;;;;;;;15.47;12.50;;;10.30;99.90;;;;;;5109037;28;20449;-67
2022/04/27 06:55:28;;;;;;;16.17;12.33;;;10.40;99.90;;;;;;5109227;28;20461;-67
2022/04/27 06:57:55;;;;;;;12.10;10.53;;;10.50;99.90;;;;;;5109134;28;20479;-67
2022/04/27 07:00:25;;;;;;;16.07;11.37;;;10.60;99.90;;;;;;5108845;28;20981;-67
2022/04/27 07:02:53;;;;;;;16.43;12.87;;;10.70;99.90;;;;;;5109644;28;20449;-67
2022/04/27 07:05:20;;;;;;;13.50;11.33;;;10.80;99.90;;;;;;5108803;28;20481;-67
2022/04/27 07:07:48;;;;;;;12.67;10.57;;;10.80;99.90;;;;;;5109061;28;20490;-66
2022/04/27 07:10:17;;;;;;;13.23;10.33;;;10.70;99.90;;;;;;5107083;28;20548;-67
2022/04/27 07:12:43;;;;;;;12.27;10.83;;;10.70;99.90;;;;;;5110200;28;21100;-66
2022/04/27 07:15:11;;;;;;;12.63;11.03;;;10.80;99.90;;;;;;5108861;28;20538;-67
2022/04/27 07:17:39;;;;;;;13.37;10.40;;;10.80;99.90;;;;;;5108815;28;20473;-65
2022/04/27 07:20:07;;;;;;;11.40;9.40;;;10.90;99.90;;;;;;5108914;28;20452;-66
2022/04/27 07:22:34;;;;;;;11.53;9.00;;;10.90;99.90;;;;;;5108872;28;20449;-66
2022/04/27 07:25:01;;;;;;;11.33;9.93;;;10.90;99.90;;;;;;5099492;28;20481;-66
2022/04/27 07:27:31;;;;;;;11.60;9.63;;;11.10;99.90;;;;;;5109245;28;20452;-66
2022/04/27 07:29:58;;;;;;;12.00;9.10;;;11.30;99.90;;;;;;5108869;28;20445;-65
2022/04/27 07:32:25;;;;;;;11.57;9.30;;;11.30;99.90;;;;;;5109315;28;20983;-67
2022/04/27 07:34:53;;;;;;;9.90;8.20;;;11.50;99.90;;;;;;5108174;28;20461;-67
2022/04/27 07:37:20;;;;;;;11.40;8.47;;;11.80;99.90;;;;;;5108957;28;20473;-66
2022/04/27 07:39:47;;;;;;;10.50;8.70;;;12.10;99.90;;;;;;5108922;28;20446;-66
2022/04/27 07:42:15;;;;;;;16.00;8.90;;;12.70;99.90;;;;;;5109412;28;20437;-66
2022/04/27 07:44:42;;;;;;;11.50;8.10;;;13.00;99.90;;;;;;5109097;28;20465;-67
2022/04/27 07:47:09;;;;;;;9.70;8.70;;;13.40;99.90;;;;;;5108775;28;20441;-65
2022/04/27 07:49:36;;;;;;;9.50;8.47;;;13.80;99.90;;;;;;5109231;28;20451;-65
2022/04/27 07:52:05;;;;;;;8.70;6.70;;;14.00;99.90;;;;;;5108435;28;20460;-63
2022/04/27 07:54:32;;;;;;;8.70;7.80;;;14.20;99.90;;;;;;5108950;28;20526;-65
2022/04/27 07:56:59;;;;;;;8.53;7.63;;;14.50;99.90;;;;;;5109249;28;20567;-64
2022/04/27 07:59:26;;;;;;;9.60;7.47;;;14.20;99.90;;;;;;5109168;28;20849;-64
2022/04/27 08:01:53;;;;;;;10.10;9.10;;;14.20;99.90;;;;;;5109404;28;20453;-65
2022/04/27 08:04:20;;;;;;;9.10;8.20;;;14.20;99.90;;;;;;5108316;28;20850;-66
2022/04/27 08:06:47;;;;;;;12.40;8.97;;;14.10;99.90;;;;;;5108670;28;20444;-66
2022/04/27 08:09:16;;;;;;;8.57;7.67;;;14.30;99.90;;;;;;5108786;28;20438;-65
2022/04/27 08:11:43;;;;;;;8.80;7.90;;;14.40;99.90;;;;;;5109028;28;20856;-66
2022/04/27 08:14:10;;;;;;;10.10;9.10;;;14.70;99.90;;;;;;5109292;28;20480;-66
2022/04/27 08:16:36;;;;;;;17.07;8.50;;;14.40;99.90;;;;;;5109452;28;20469;-66
2022/04/27 08:19:03;;;;;;;13.07;9.33;;;14.50;99.90;;;;;;5108339;28;20968;-66
2022/04/27 08:21:30;;;;;;;7.80;7.10;;;14.30;99.90;;;;;;5108883;28;20448;-66
2022/04/27 08:23:59;;;;;;;8.07;7.27;;;14.20;99.90;;;;;;5108938;28;20454;-65
2022/04/27 08:26:27;;;;;;;8.00;7.20;;;14.60;99.90;;;;;;5108129;28;20476;-66
2022/04/27 08:28:54;;;;;;;9.20;6.90;;;14.80;99.90;;;;;;5108557;28;20446;-66
2022/04/27 08:31:21;;;;;;;7.30;6.00;;;15.20;99.90;;;;;;5109215;28;20481;-66
2022/04/27 08:33:48;;;;;;;8.43;6.93;;;15.30;99.90;;;;;;5108786;28;20491;-66
2022/04/27 08:36:14;;;;;;;7.50;6.10;;;15.70;99.90;;;;;;5107648;28;20445;-66
2022/04/27 08:38:41;;;;;;;8.53;7.53;;;15.90;99.90;;;;;;5108131;28;20995;-66
2022/04/27 08:41:08;;;;;;;7.80;7.10;;;16.00;99.90;;;;;;5109376;28;20476;-66
2022/04/27 08:43:36;;;;;;;8.90;8.00;;;16.40;99.90;;;;;;5108576;28;20444;-66
2022/04/27 08:46:04;;;;;;;8.70;7.70;;;16.30;99.90;;;;;;5109249;28;20461;-66
2022/04/27 08:48:31;;;;;;;8.33;7.50;;;16.30;99.90;;;;;;5112197;28;20445;-66
2022/04/27 08:51:00;;;;;;;7.90;7.10;;;16.20;99.90;;;;;;5112443;28;20444;-66
2022/04/27 08:53:28;;;;;;;7.80;7.00;;;15.70;99.90;;;;;;5112142;28;20449;-66
2022/04/27 08:55:55;;;;;;;10.90;7.03;;;15.80;99.90;;;;;;5111715;28;20476;-65
2022/04/27 08:58:23;;;;;;;6.90;6.03;;;15.30;99.90;;;;;;5111865;28;20488;-66
2022/04/27 09:00:51;;;;;;;7.70;6.30;;;15.40;99.90;;;;;;5111460;28;20449;-66
2022/04/27 09:03:26;;;;;;;7.67;6.23;;;15.20;99.90;;;;;;5111474;28;20452;-66
2022/04/27 09:05:54;;;;;;;8.30;7.23;;;15.30;99.90;;;;;;5111642;28;20486;-67
2022/04/27 09:08:24;;;;;;;6.20;5.10;;;15.40;99.90;;;;;;5112343;28;20915;-66
2022/04/27 09:10:51;;;;;;;5.97;5.30;;;15.40;99.90;;;;;;5112382;28;20445;-66
2022/04/27 09:13:18;;;;;;;10.87;6.30;;;15.50;99.90;;;;;;5111278;28;20835;-66
2022/04/27 09:15:44;;;;;;;5.40;4.90;;;15.10;99.90;;;;;;5111681;28;20461;-66
2022/04/27 09:21:01;;;;;;;6.10;5.50;;;15.40;99.90;;;;;;5109590;28;20534;-66
2022/04/27 09:23:36;;;;;;;6.07;5.20;;;15.70;99.90;;;;;;5111835;28;20441;-66
2022/04/27 09:26:15;;;;;;;6.60;5.40;;;15.70;99.90;;;;;;5110893;28;20481;-65
2022/04/27 09:28:48;;;;;;;7.23;5.33;;;16.10;99.90;;;;;;5111088;28;20438;-66
2022/04/27 09:31:27;;;;;;;5.87;5.27;;;16.30;99.90;;;;;;5112224;28;21140;-66
2022/04/27 09:34:00;;;;;;;6.23;5.63;;;16.40;99.90;;;;;;5111358;28;20449;-66
2022/04/27 09:36:28;;;;;;;5.57;4.93;;;16.60;99.90;;;;;;5111715;28;20544;-66
2022/04/27 09:38:57;;;;;;;5.07;4.57;;;17.00;99.90;;;;;;5111316;28;20563;-66
2022/04/27 09:41:41;;;;;;;6.00;4.60;;;17.30;99.90;;;;;;5111992;28;20586;-67
2022/04/27 09:44:09;;;;;;;5.40;4.90;;;17.20;99.90;;;;;;5109792;28;20515;-65
2022/04/27 09:46:41;;;;;;;6.00;5.40;;;16.80;99.90;;;;;;5111341;28;20496;-67
2022/04/27 09:49:14;;;;;;;7.30;5.90;;;16.50;99.90;;;;;;5111427;28;20441;-66
2022/04/27 09:51:48;;;;;;;5.50;4.53;;;15.90;99.90;;;;;;5111140;28;20507;-65
2022/04/27 09:54:20;;;;;;;6.30;4.90;;;16.30;99.90;;;;;;5110586;28;20537;-67
2022/04/27 09:56:54;;;;;;;5.67;4.83;;;16.60;99.90;;;;;;5110192;28;20516;-67
2022/04/27 09:59:26;;;;;;;8.33;5.33;;;17.20;99.90;;;;;;5110942;28;20455;-65
2022/04/27 10:01:56;;;;;;;6.33;5.60;;;17.90;99.90;;;;;;5110597;28;20457;-66
2022/04/27 10:04:28;;;;;;;6.40;5.37;;;18.20;99.90;;;;;;5111111;28;20472;-65
2022/04/27 10:06:58;;;;;;;6.80;6.10;;;18.20;99.90;;;;;;5111682;28;20827;-66
2022/04/27 10:09:26;;;;;;;6.00;5.17;;;17.30;99.90;;;;;;5111419;28;20477;-65
2022/04/27 10:11:55;;;;;;;9.00;4.87;;;17.50;99.90;;;;;;5111122;28;20523;-66
2022/04/27 10:14:22;;;;;;;6.10;5.50;;;18.10;99.90;;;;;;5109859;28;20465;-66
2022/04/27 10:16:49;;;;;;;5.33;4.83;;;18.60;99.90;;;;;;5111239;28;20954;-66
2022/04/27 10:19:17;;;;;;;6.97;5.73;;;18.90;99.90;;;;;;5109805;28;21095;-65
2022/04/27 10:21:57;;;;;;;5.77;4.93;;;18.50;99.90;;;;;;5110751;28;21055;-64
2022/04/27 10:24:50;;;;;;;6.60;5.60;;;18.40;99.90;;;;;;5110168;28;20465;-66
2022/04/27 10:27:18;;;;;;;5.53;5.03;;;18.10;99.90;;;;;;5110291;28;21141;-64
2022/04/27 10:29:47;;;;;;;4.83;4.33;;;17.80;99.90;;;;;;5110701;28;20867;-66
2022/04/27 10:32:33;;;;;;;6.27;4.83;;;17.60;99.90;;;;;;5110445;28;20442;-66
2022/04/27 10:35:17;;;;;;;5.10;4.60;;;17.20;99.90;;;;;;5109224;28;20556;-66
2022/04/27 10:37:47;;;;;;;5.77;5.17;;;17.00;99.90;;;;;;5109373;28;20473;-66
2022/04/27 10:40:31;;;;;;;5.87;5.27;;;17.10;99.90;;;;;;5109827;28;20437;-66
2022/04/27 10:43:12;;;;;;;5.67;5.17;;;17.20;99.90;;;;;;5110334;28;20524;-66
2022/04/27 10:45:40;;;;;;;5.20;4.70;;;17.40;99.90;;;;;;5109657;28;21083;-66
2022/04/27 10:48:08;;;;;;;6.07;5.47;;;17.40;99.90;;;;;;5110849;28;20449;-66
2022/04/27 10:50:36;;;;;;;6.10;5.50;;;17.60;99.90;;;;;;5110166;28;20445;-65
2022/04/27 10:53:19;;;;;;;5.20;4.70;;;17.50;99.90;;;;;;5109467;28;21077;-65
2022/04/27 10:55:51;;;;;;;6.37;5.20;;;17.30;99.90;;;;;;5107028;28;20477;-66
2022/04/27 10:58:19;;;;;;;5.53;5.03;;;17.30;99.90;;;;;;5109781;28;20477;-66
2022/04/27 11:01:26;;;;;;;5.50;5.00;;;17.70;99.90;;;;;;5108838;28;20901;-65
2022/04/27 11:04:08;;;;;;;4.93;4.30;;;18.00;99.90;;;;;;5107241;28;20441;-66
2022/04/27 11:07:15;;;;;;;5.23;4.67;;;18.50;99.90;;;;;;5109068;28;20958;-66
2022/04/27 11:10:09;;;;;;;5.63;5.10;;;19.40;99.90;;;;;;5109075;28;20433;-65
2022/04/27 11:12:36;;;;;;;5.20;4.70;;;20.30;99.90;;;;;;5108736;28;20950;-66
2022/04/27 11:15:04;;;;;;;22.10;6.80;;;20.90;99.90;;;;;;5108757;28;20476;-65
2022/04/27 11:17:33;;;;;;;5.80;4.80;;;21.00;97.50;;;;;;5109619;28;20488;-64
2022/04/27 11:19:59;;;;;;;5.00;4.50;;;21.80;98.60;;;;;;5109003;28;20446;-66
2022/04/27 11:22:26;;;;;;;6.00;5.40;;;22.60;95.80;;;;;;5109609;28;20450;-66
2022/04/27 11:24:55;;;;;;;5.20;4.70;;;22.80;93.40;;;;;;5108473;28;20476;-66
2022/04/27 11:27:26;;;;;;;6.30;5.07;;;22.70;94.50;;;;;;5109309;28;20912;-66
2022/04/27 11:29:54;;;;;;;7.20;6.20;;;22.30;91.70;;;;;;5107825;28;20442;-66
2022/04/27 11:32:21;;;;;;;5.50;5.00;;;21.70;94.40;;;;;;5109087;28;20448;-65
2022/04/27 11:34:49;;;;;;;6.77;4.93;;;21.50;95.80;;;;;;5109162;28;20465;-66
2022/04/27 11:37:17;;;;;;;5.50;4.60;;;21.70;96.00;;;;;;5109031;28;20441;-65
2022/04/27 11:39:45;;;;;;;6.13;5.23;;;22.40;94.10;;;;;;5108449;28;20454;-66
2022/04/27 11:42:12;;;;;;;8.57;4.80;;;22.50;94.60;;;;;;5110264;28;20461;-66
2022/04/27 11:44:41;;;;;;;6.57;6.07;;;22.30;92.00;;;;;;5107446;28;20469;-65
2022/04/27 11:47:27;;;;;;;5.60;5.10;;;21.90;93.20;;;;;;5108720;28;20866;-66
2022/04/27 11:49:55;;;;;;;4.77;3.93;;;22.50;93.40;;;;;;5109768;28;20429;-65
2022/04/27 11:52:22;;;;;;;4.60;4.20;;;23.40;91.90;;;;;;5108793;28;20433;-66
2022/04/27 11:54:49;;;;;;;5.03;4.53;;;24.10;91.60;;;;;;5106111;28;20543;-66
2022/04/27 11:57:21;;;;;;;5.77;5.27;;;24.50;87.80;;;;;;5108679;28;20441;-65
2022/04/27 11:59:51;;;;;;;5.73;5.13;;;24.90;90.00;;;;;;5105714;28;20437;-65
2022/04/27 12:02:23;;;;;;;7.70;4.40;;;25.00;84.60;;;;;;5107571;28;20441;-64
2022/04/27 12:04:51;;;;;;;5.43;4.93;;;24.70;85.60;;;;;;5107613;28;20464;-65
2022/04/27 12:07:19;;;;;;;6.20;4.73;;;24.20;88.30;;;;;;5104455;28;20541;-65
2022/04/27 12:10:00;;;;;;;5.50;5.00;;;23.20;87.50;;;;;;5108663;28;20445;-65
2022/04/27 12:12:28;;;;;;;6.00;5.40;;;22.20;88.10;;;;;;5106949;28;21264;-65
2022/04/27 12:14:57;;;;;;;5.40;4.90;;;21.50;92.10;;;;;;5107002;28;20461;-65
2022/04/27 12:17:50;;;;;;;5.40;4.90;;;22.00;93.40;;;;;;5107449;28;20429;-66
2022/04/27 12:20:30;;;;;;;6.10;5.60;;;23.00;91.50;;;;;;5107414;28;20520;-65
2022/04/27 12:22:59;;;;;;;5.40;4.90;;;22.80;86.00;;;;;;5111268;27;20962;-64
2022/04/27 12:25:54;;;;;;;5.83;4.70;;;22.00;91.40;;;;;;5111129;28;20560;-64
2022/04/27 12:28:22;;;;;;;6.30;5.70;;;21.70;92.50;;;;;;5106944;28;20481;-65
2022/04/27 12:30:52;;;;;;;5.47;4.93;;;21.20;92.30;;;;;;5114172;27;20451;-65
2022/04/27 12:33:22;;;;;;;6.90;6.20;;;21.00;93.00;;;;;;5111219;28;20429;-65
2022/04/27 12:38:37;;;;;;;5.93;5.33;;;20.10;94.60;;;;;;5102630;28;20461;-65
2022/04/27 12:41:04;;;;;;;5.67;5.17;;;19.90;92.50;;;;;;5112203;28;20494;-65
2022/04/27 12:43:32;;;;;;;5.70;5.10;;;19.60;94.30;;;;;;5110938;28;20977;-67
2022/04/27 12:46:11;;;;;;;5.30;4.80;;;19.50;94.10;;;;;;5108686;28;21052;-65
2022/04/27 12:48:38;;;;;;;6.70;6.10;;;19.30;95.30;;;;;;5114897;27;20441;-65
2022/04/27 12:51:08;;;;;;;5.53;5.10;;;18.70;94.30;;;;;;5111534;27;20440;-64
2022/04/27 12:53:36;;;;;;;5.80;5.30;;;18.40;95.80;;;;;;5111507;27;20442;-65
2022/04/27 12:56:08;;;;;;;5.93;5.33;;;17.70;96.90;;;;;;5109894;28;20469;-65
2022/04/27 12:58:35;;;;;;;5.90;5.30;;;17.70;98.20;;;;;;5109596;28;20500;-65
2022/04/27 13:01:02;;;;;;;6.93;6.10;;;17.60;97.80;;;;;;5109913;28;20446;-65
2022/04/27 13:03:30;;;;;;;5.73;5.13;;;17.40;95.80;;;;;;5110243;28;20524;-65
2022/04/27 13:05:58;;;;;;;7.63;5.67;;;17.10;97.30;;;;;;5112365;27;20453;-66